Piarco FIR Weather

TAPA 221000Z 20003KT 9999 FEW016 22/20 Q1016 NOSIG

TBPB 221000Z 10016KT 9999 SCT020 25/22 Q1014 NOSIG

TDPD 220000Z COR 31002KT 9999 FEW022 SCT038 25/21 Q1015

TFFF 221000Z AUTO 02002KT 9999 FEW023/// ///CB 23/22 Q1015 TEMPO 3000 SHRA

TFFR 221000Z AUTO VRB02KT CAVOK 23/22 Q1016 TEMPO 3000 SHRA SCT018CB

TGPY 221000Z 09014KT 8000 VCSH FEW016 SCT032 BKN080 27/24 Q1014 NOSIG ADJ SHRA-ENE

TKPK 221000Z 00000KT 9999 -SHRA BKN016 24/23 Q1017

TKPN 212300Z 09013KT 9999 BKN018 27/22 Q1015

TLPC 221000Z 11008KT 9999 FEW023 26/23 Q1015 NOSIG

TLPL 221000Z 10016KT 9999 SCT024 BKN040 27/24 Q1015 NOSIG

TTCP 220900Z 10010KT 9999 VCSH SCT016 27/23 Q1013 NOSIG RMK VCSH NE-E

TTPP 220900Z 11006KT 9999 FEW016 25/24 Q1013 NOSIG

TVSV 162300Z 09007KT 050V140 9999 FEW020 26/21 Q1014